Аэропорт: Курумоч. Самара

ICAO: UWWW

METAR:
2024-04-22 23:00:00
UWWW 222300Z 05003MPS 030V130 CAVOK 14/07 Q1016 R15/CLRD63 NOSIG RMK QFE750/1000
TAF:
2024-04-22 19:51:00
TAF UWWW 221951Z 2221/2321 18003G09MPS 9999 SCT030 TX22/2311Z TN15/2303Z 
  BECMG 2304/2305 30005G12MPS 
  TEMPO 2306/2316 27009G16MPS BKN020CB